createdAt,value
2023-06-19T00:01:21.705Z,84.99
2023-06-19T00:03:49.594Z,85.48
2023-06-19T00:06:17.998Z,85.37
2023-06-19T00:08:45.998Z,84.90
2023-06-19T00:11:14.221Z,85.06
2023-06-19T00:13:42.390Z,85.20
2023-06-19T00:16:11.021Z,84.98
2023-06-19T00:18:42.198Z,85.08
2023-06-19T00:21:10.367Z,84.50
2023-06-19T00:23:38.697Z,84.64
2023-06-19T00:26:07.877Z,84.83
2023-06-19T00:28:40.224Z,85.44
2023-06-19T00:31:08.268Z,85.62
2023-06-19T00:33:36.313Z,86.24
2023-06-19T00:36:10.182Z,86.35
2023-06-19T00:38:40.591Z,86.41
2023-06-19T00:41:09.402Z,86.17
2023-06-19T00:43:38.079Z,86.52
2023-06-19T00:46:06.098Z,86.41
2023-06-19T00:48:35.686Z,85.95
2023-06-19T00:51:04.118Z,85.87
2023-06-19T00:53:35.755Z,86.39
2023-06-19T00:56:05.153Z,86.59
2023-06-19T00:58:33.620Z,86.81
2023-06-19T01:01:08.810Z,87.06
2023-06-19T01:03:38.647Z,87.45
2023-06-19T01:06:15.586Z,87.94
2023-06-19T01:08:58.728Z,87.67
2023-06-19T01:11:33.074Z,87.84
2023-06-19T01:14:07.387Z,87.78
2023-06-19T01:16:36.675Z,88.23
2023-06-19T01:19:06.601Z,88.57
2023-06-19T01:21:35.600Z,88.54
2023-06-19T01:24:06.102Z,88.34
2023-06-19T01:26:34.413Z,88.55
2023-06-19T01:29:02.453Z,88.36
2023-06-19T01:32:00.351Z,88.50
2023-06-19T01:34:31.679Z,88.07
2023-06-19T01:37:00.638Z,87.95
2023-06-19T01:39:29.728Z,88.21
2023-06-19T01:41:58.977Z,88.05
2023-06-19T01:44:27.551Z,88.03
2023-06-19T01:46:55.706Z,88.13
2023-06-19T01:49:23.866Z,88.06
2023-06-19T01:51:51.978Z,88.07
2023-06-19T01:54:19.864Z,88.13
2023-06-19T01:56:48.085Z,88.47
2023-06-19T01:59:16.080Z,88.89
2023-06-19T02:01:44.314Z,89.00
2023-06-19T02:04:12.512Z,89.21
2023-06-19T02:06:40.588Z,89.71
2023-06-19T02:09:09.225Z,90.02
2023-06-19T02:11:40.101Z,90.02
2023-06-19T02:14:08.149Z,89.72
2023-06-19T02:16:36.406Z,89.43
2023-06-19T02:19:04.622Z,89.72
2023-06-19T02:21:32.553Z,89.36
2023-06-19T02:24:00.792Z,89.51
2023-06-19T02:26:30.432Z,89.31
2023-06-19T02:28:58.337Z,89.48
2023-06-19T02:31:26.263Z,89.29
2023-06-19T02:33:54.182Z,88.49
2023-06-19T02:36:22.498Z,88.24
2023-06-19T02:38:50.602Z,88.32
2023-06-19T02:41:19.583Z,88.21
2023-06-19T02:43:48.202Z,88.21
2023-06-19T02:46:16.430Z,88.56
2023-06-19T02:48:44.559Z,88.45
2023-06-19T02:51:12.682Z,88.24
2023-06-19T02:53:41.582Z,88.20
2023-06-19T02:56:14.568Z,87.70
2023-06-19T02:58:42.684Z,87.31
2023-06-19T03:01:10.654Z,87.34
2023-06-19T03:03:39.305Z,87.56
2023-06-19T03:06:08.723Z,87.26
2023-06-19T03:08:37.845Z,87.53
2023-06-19T03:11:06.663Z,87.66
2023-06-19T03:13:52.836Z,87.43
2023-06-19T03:16:22.242Z,87.35
2023-06-19T03:18:53.086Z,87.38
2023-06-19T03:21:23.347Z,87.67
2023-06-19T03:23:51.503Z,88.35
2023-06-19T03:26:22.618Z,88.56
2023-06-19T03:28:50.648Z,88.22
2023-06-19T03:31:18.808Z,88.17
2023-06-19T03:33:46.828Z,88.30
2023-06-19T03:36:15.207Z,88.07
2023-06-19T03:38:56.534Z,87.64
2023-06-19T03:41:27.530Z,87.33
2023-06-19T03:43:55.762Z,86.69
2023-06-19T03:46:25.307Z,86.39
2023-06-19T03:48:53.393Z,85.89
2023-06-19T03:51:22.283Z,84.94
2023-06-19T03:53:50.709Z,84.72
2023-06-19T03:56:19.179Z,84.41
2023-06-19T03:58:47.137Z,83.79
2023-06-19T04:01:15.067Z,83.20
2023-06-19T04:03:43.626Z,82.48
2023-06-19T04:06:11.613Z,82.04
2023-06-19T04:08:41.450Z,82.38
2023-06-19T04:11:13.256Z,82.16
2023-06-19T04:13:41.678Z,81.40
2023-06-19T04:16:09.983Z,80.32
2023-06-19T04:18:38.045Z,80.11
2023-06-19T04:21:06.544Z,79.84
2023-06-19T04:23:34.649Z,79.53
2023-06-19T04:26:03.281Z,78.66
2023-06-19T04:28:31.299Z,78.66
2023-06-19T04:31:02.196Z,77.67
2023-06-19T04:33:30.878Z,77.26
2023-06-19T04:35:59.081Z,75.81
2023-06-19T04:38:27.167Z,75.90
2023-06-19T04:40:55.357Z,75.40
2023-06-19T04:43:25.749Z,75.38
2023-06-19T04:45:54.770Z,74.90
2023-06-19T04:48:27.186Z,74.81
2023-06-19T04:50:57.937Z,75.12
2023-06-19T04:53:26.373Z,74.31
2023-06-19T04:55:56.190Z,74.05
2023-06-19T04:58:24.138Z,73.77
2023-06-19T05:00:53.468Z,73.09
2023-06-19T05:03:23.201Z,72.40
2023-06-19T05:05:51.532Z,72.03
2023-06-19T05:08:19.460Z,72.05
2023-06-19T05:10:47.436Z,71.90
2023-06-19T05:13:15.474Z,71.87
2023-06-19T05:15:43.552Z,70.51
2023-06-19T05:18:11.616Z,69.54
2023-06-19T05:20:39.726Z,69.30
2023-06-19T05:23:07.844Z,69.20
2023-06-19T05:25:35.821Z,69.25
2023-06-19T05:28:06.067Z,69.68
2023-06-19T05:30:34.337Z,69.58
2023-06-19T05:33:02.529Z,68.45
2023-06-19T05:35:31.555Z,69.07
2023-06-19T05:37:59.567Z,69.87
2023-06-19T05:40:28.807Z,70.02
2023-06-19T05:42:57.320Z,70.44
2023-06-19T05:45:25.296Z,69.83
2023-06-19T05:47:53.329Z,69.82
2023-06-19T05:50:21.429Z,70.72
2023-06-19T05:52:49.541Z,71.21
2023-06-19T05:55:17.623Z,71.32
2023-06-19T05:57:45.842Z,70.79
2023-06-19T06:00:17.561Z,70.82
2023-06-19T06:02:46.013Z,70.84
2023-06-19T06:05:14.447Z,71.02
2023-06-19T06:07:42.370Z,70.92
2023-06-19T06:10:11.117Z,70.30
2023-06-19T06:12:39.128Z,69.64
2023-06-19T06:15:07.756Z,69.29
2023-06-19T06:17:36.393Z,69.37
2023-06-19T06:20:13.808Z,69.19
2023-06-19T06:22:43.264Z,68.57
2023-06-19T06:25:13.214Z,68.15
2023-06-19T06:27:43.222Z,67.86
2023-06-19T06:30:13.057Z,67.95
2023-06-19T06:32:41.203Z,67.82
2023-06-19T06:35:09.786Z,67.82
2023-06-19T06:37:38.113Z,67.54
2023-06-19T06:40:10.807Z,66.54
2023-06-19T06:42:40.093Z,66.17
2023-06-19T06:45:09.021Z,66.40
2023-06-19T06:47:37.048Z,65.65
2023-06-19T06:50:05.746Z,65.57
2023-06-19T06:52:34.019Z,64.46
2023-06-19T06:55:02.073Z,63.98
2023-06-19T06:57:30.053Z,63.51
2023-06-19T06:59:58.277Z,63.35
2023-06-19T07:02:26.453Z,62.71
2023-06-19T07:04:54.764Z,61.84
2023-06-19T07:07:22.794Z,60.90
2023-06-19T07:09:50.942Z,61.05
2023-06-19T07:12:18.970Z,60.73
2023-06-19T07:14:46.912Z,60.39
2023-06-19T07:17:14.812Z,59.33
2023-06-19T07:19:42.808Z,58.15
2023-06-19T07:22:10.953Z,56.85
2023-06-19T07:24:39.136Z,56.12
2023-06-19T07:27:07.879Z,55.87
2023-06-19T07:29:35.967Z,55.53
2023-06-19T07:32:05.729Z,54.47
2023-06-19T07:34:33.910Z,54.93
2023-06-19T07:37:01.905Z,55.60
2023-06-19T07:39:29.876Z,54.51
2023-06-19T07:41:57.986Z,54.15
2023-06-19T07:44:26.274Z,54.72
2023-06-19T07:46:54.367Z,53.73
2023-06-19T07:49:22.404Z,54.47
2023-06-19T07:51:50.397Z,53.45
2023-06-19T07:54:18.473Z,53.53
2023-06-19T07:56:46.404Z,54.48
2023-06-19T07:59:15.427Z,54.31
2023-06-19T08:01:43.713Z,54.31
2023-06-19T08:04:12.161Z,53.45
2023-06-19T08:06:40.152Z,53.41
2023-06-19T08:09:08.460Z,52.95
2023-06-19T08:11:38.499Z,53.40
2023-06-19T08:14:06.548Z,52.94
2023-06-19T08:16:34.575Z,52.47
2023-06-19T08:19:03.372Z,52.50
2023-06-19T08:21:31.352Z,51.50
2023-06-19T08:23:59.744Z,50.53
2023-06-19T08:26:27.865Z,51.81
2023-06-19T08:28:56.237Z,50.95
2023-06-19T08:31:28.595Z,51.17
2023-06-19T08:33:57.167Z,51.22
2023-06-19T08:36:25.470Z,51.45
2023-06-19T08:38:53.969Z,51.23
2023-06-19T08:41:22.208Z,49.22
2023-06-19T08:43:50.256Z,48.51
2023-06-19T08:46:20.073Z,48.43
2023-06-19T08:48:57.199Z,47.88
2023-06-19T08:51:28.082Z,46.98
2023-06-19T08:53:57.898Z,46.83
2023-06-19T08:56:25.778Z,46.77
2023-06-19T08:58:54.859Z,45.70
2023-06-19T09:01:24.721Z,45.40
2023-06-19T09:03:54.032Z,44.63
2023-06-19T09:06:22.342Z,44.46
2023-06-19T09:09:01.074Z,44.39
2023-06-19T09:11:29.572Z,43.24
2023-06-19T09:13:59.748Z,43.56
2023-06-19T09:16:39.014Z,43.88
2023-06-19T09:19:08.043Z,41.64
2023-06-19T09:21:39.543Z,40.45
2023-06-19T09:24:09.415Z,41.71
2023-06-19T09:26:38.227Z,41.21
2023-06-19T09:29:15.973Z,41.08
2023-06-19T09:31:45.745Z,41.70
2023-06-19T09:34:13.720Z,41.11
2023-06-19T09:36:42.655Z,40.68
2023-06-19T09:39:12.025Z,40.77
2023-06-19T09:41:42.058Z,40.87
2023-06-19T09:44:13.954Z,41.08
2023-06-19T09:46:47.197Z,41.76
2023-06-19T09:49:17.172Z,42.80
2023-06-19T09:51:45.428Z,42.87
2023-06-19T09:54:15.857Z,41.61
2023-06-19T09:56:44.503Z,42.49
2023-06-19T09:59:14.764Z,44.12
2023-06-19T10:01:44.138Z,44.26
2023-06-19T10:04:13.776Z,43.72
2023-06-19T10:06:46.433Z,44.05
2023-06-19T10:09:19.640Z,43.88
2023-06-19T10:11:54.779Z,44.63
2023-06-19T10:14:24.069Z,45.79
2023-06-19T10:16:52.472Z,44.62
2023-06-19T10:19:23.605Z,43.71
2023-06-19T10:21:56.563Z,43.49
2023-06-19T10:24:26.739Z,42.76
2023-06-19T10:27:01.159Z,42.57
2023-06-19T10:30:15.046Z,42.70
2023-06-19T10:32:44.308Z,41.49
2023-06-19T10:35:17.365Z,42.15
2023-06-19T10:37:46.256Z,42.45
2023-06-19T10:40:14.427Z,40.55
2023-06-19T10:42:44.066Z,39.61
2023-06-19T10:45:14.748Z,40.45
2023-06-19T10:47:43.013Z,41.39
2023-06-19T10:50:15.571Z,41.06
2023-06-19T10:52:48.789Z,40.30
2023-06-19T10:55:16.774Z,41.38
2023-06-19T10:57:50.077Z,41.57
2023-06-19T11:00:34.375Z,42.17
2023-06-19T11:03:02.392Z,42.79
2023-06-19T11:05:30.522Z,43.02
2023-06-19T11:08:00.759Z,43.87
2023-06-19T11:10:30.272Z,41.78
2023-06-19T11:13:00.415Z,41.77
2023-06-19T11:15:35.947Z,42.23
2023-06-19T11:18:04.516Z,40.65
2023-06-19T11:20:44.840Z,39.19
2023-06-19T11:23:14.265Z,38.28
2023-06-19T11:25:43.373Z,37.50
2023-06-19T11:28:23.606Z,37.90
2023-06-19T11:31:00.718Z,36.15
2023-06-19T11:33:29.182Z,35.12
2023-06-19T11:36:01.938Z,34.11
2023-06-19T11:38:30.197Z,33.71
2023-06-19T11:40:58.513Z,32.25
2023-06-19T11:43:33.854Z,31.31
2023-06-19T11:46:06.556Z,31.36
2023-06-19T11:48:38.443Z,30.52
2023-06-19T11:51:06.823Z,29.66
2023-06-19T11:53:36.642Z,30.77
2023-06-19T11:56:05.064Z,30.90
2023-06-19T11:58:32.971Z,31.47
2023-06-19T12:01:00.967Z,30.75
2023-06-19T12:03:29.232Z,31.41
2023-06-19T12:05:57.461Z,32.43
2023-06-19T12:08:25.405Z,32.14
2023-06-19T12:10:53.620Z,32.75
2023-06-19T12:13:21.865Z,32.61
2023-06-19T12:15:52.579Z,32.56
2023-06-19T12:18:20.746Z,32.66
2023-06-19T12:20:48.750Z,34.03
2023-06-19T12:23:16.859Z,33.98
2023-06-19T12:25:44.832Z,34.26
2023-06-19T12:28:17.886Z,34.49
2023-06-19T12:30:46.942Z,34.86
2023-06-19T12:33:15.140Z,34.93
2023-06-19T12:35:43.246Z,34.69
2023-06-19T12:38:11.708Z,34.51
2023-06-19T12:40:40.087Z,33.39
2023-06-19T12:43:08.149Z,33.67
2023-06-19T12:45:36.202Z,35.63
2023-06-19T12:48:04.921Z,37.11
2023-06-19T12:50:33.194Z,37.71
2023-06-19T12:53:01.232Z,38.84
2023-06-19T12:55:29.183Z,40.95
2023-06-19T12:57:57.323Z,42.56
2023-06-19T13:00:25.428Z,44.62
2023-06-19T13:02:53.725Z,45.75
2023-06-19T13:05:22.114Z,46.34
2023-06-19T13:07:50.099Z,48.03
2023-06-19T13:10:18.114Z,47.45
2023-06-19T13:12:46.207Z,47.37
2023-06-19T13:15:14.140Z,47.97
2023-06-19T13:17:42.174Z,48.09
2023-06-19T13:20:10.543Z,47.95
2023-06-19T13:22:38.786Z,48.00
2023-06-19T13:25:07.423Z,48.27
2023-06-19T13:27:35.561Z,47.66
2023-06-19T13:30:05.983Z,47.57
2023-06-19T13:32:36.937Z,48.11
2023-06-19T13:35:07.061Z,48.72
2023-06-19T13:37:41.739Z,48.64
2023-06-19T13:40:10.964Z,49.07
2023-06-19T13:42:39.898Z,49.38
2023-06-19T13:45:10.232Z,49.59
2023-06-19T13:47:38.390Z,49.99
2023-06-19T13:50:08.094Z,50.38
2023-06-19T13:52:37.564Z,50.51
2023-06-19T13:55:06.021Z,50.07
2023-06-19T13:57:34.004Z,49.84
2023-06-19T14:00:02.172Z,49.69
2023-06-19T14:02:42.066Z,50.12
2023-06-19T14:05:11.152Z,50.27
2023-06-19T14:07:40.419Z,50.08
2023-06-19T14:10:09.166Z,49.87
2023-06-19T14:12:37.413Z,49.40
2023-06-19T14:15:09.653Z,48.83
2023-06-19T14:17:38.013Z,48.50
2023-06-19T14:20:12.146Z,48.08
2023-06-19T14:22:40.618Z,48.22
2023-06-19T14:25:09.576Z,48.39
2023-06-19T14:27:37.664Z,48.55
2023-06-19T14:30:09.074Z,48.43
2023-06-19T14:32:38.192Z,48.32
2023-06-19T14:35:07.321Z,48.04
2023-06-19T14:37:35.489Z,48.08
2023-06-19T14:40:04.280Z,47.79
2023-06-19T14:42:32.311Z,47.14
2023-06-19T14:45:00.278Z,47.01
2023-06-19T14:47:28.602Z,46.94
2023-06-19T14:49:57.098Z,47.13
2023-06-19T14:52:25.430Z,47.68
2023-06-19T14:54:53.795Z,47.60
2023-06-19T14:57:26.928Z,48.05
2023-06-19T14:59:57.072Z,48.16
2023-06-19T15:02:25.107Z,48.32
2023-06-19T15:05:05.103Z,48.79
2023-06-19T15:07:36.266Z,49.46
2023-06-19T15:10:05.491Z,50.06
2023-06-19T15:12:35.902Z,50.02
2023-06-19T15:15:05.023Z,49.63
2023-06-19T15:17:33.155Z,49.34
2023-06-19T15:20:01.174Z,49.52
2023-06-19T15:22:29.655Z,49.34
2023-06-19T15:24:57.753Z,49.34
2023-06-19T15:27:26.013Z,49.42
2023-06-19T15:29:54.369Z,49.20
2023-06-19T15:32:22.623Z,49.19
2023-06-19T15:34:50.499Z,49.41
2023-06-19T15:37:18.575Z,49.44
2023-06-19T15:39:46.607Z,49.70
2023-06-19T15:42:14.606Z,49.81
2023-06-19T15:44:42.509Z,49.67
2023-06-19T15:47:11.154Z,49.44
2023-06-19T15:49:39.225Z,49.61
2023-06-19T15:52:07.282Z,49.46
2023-06-19T15:54:35.403Z,49.33
2023-06-19T15:57:03.765Z,49.26
2023-06-19T15:59:32.130Z,49.00
2023-06-19T16:02:00.215Z,48.99
2023-06-19T16:04:28.681Z,49.09
2023-06-19T16:06:56.582Z,49.16
2023-06-19T16:09:27.406Z,49.31
2023-06-19T16:11:55.571Z,49.10
2023-06-19T16:14:23.689Z,48.92
2023-06-19T16:16:51.682Z,49.08
2023-06-19T16:19:21.525Z,49.51
2023-06-19T16:21:49.914Z,49.76
2023-06-19T16:24:18.351Z,50.87
2023-06-19T16:26:46.417Z,51.65
2023-06-19T16:29:14.747Z,52.03
2023-06-19T16:31:45.402Z,52.57
2023-06-19T16:34:15.197Z,52.86
2023-06-19T16:36:43.284Z,53.46
2023-06-19T16:39:13.691Z,53.92
2023-06-19T16:41:42.049Z,54.21
2023-06-19T16:44:10.042Z,54.43
2023-06-19T16:46:38.680Z,54.18
2023-06-19T16:49:06.809Z,54.06
2023-06-19T16:51:34.775Z,53.98
2023-06-19T16:54:02.921Z,53.91
2023-06-19T16:56:30.928Z,54.08
2023-06-19T16:58:59.129Z,54.39
2023-06-19T17:01:27.074Z,54.61
2023-06-19T17:03:55.305Z,55.07
2023-06-19T17:06:25.360Z,55.15
2023-06-19T17:08:53.571Z,54.96
2023-06-19T17:11:21.741Z,55.02
2023-06-19T17:13:49.652Z,54.75
2023-06-19T17:16:17.660Z,55.19
2023-06-19T17:18:45.833Z,56.24
2023-06-19T17:21:13.777Z,56.83
2023-06-19T17:23:41.867Z,57.04
2023-06-19T17:26:09.936Z,57.54
2023-06-19T17:28:37.992Z,57.56
2023-06-19T17:31:08.647Z,58.63
2023-06-19T17:33:36.679Z,58.18
2023-06-19T17:36:04.808Z,58.36
2023-06-19T17:38:32.860Z,58.77
2023-06-19T17:41:01.666Z,59.38
2023-06-19T17:43:29.846Z,60.12
2023-06-19T17:45:57.786Z,60.40
2023-06-19T17:48:25.655Z,60.56
2023-06-19T17:50:53.738Z,60.63
2023-06-19T17:53:21.810Z,60.83
2023-06-19T17:55:49.669Z,60.77
2023-06-19T17:58:17.752Z,61.19
2023-06-19T18:00:45.727Z,61.24
2023-06-19T18:03:13.853Z,61.48
2023-06-19T18:05:41.846Z,61.99
2023-06-19T18:08:09.828Z,62.02
2023-06-19T18:10:37.861Z,62.98
2023-06-19T18:13:05.866Z,63.03
2023-06-19T18:15:33.855Z,63.56
2023-06-19T18:18:01.943Z,64.58
2023-06-19T18:20:30.159Z,65.19
2023-06-19T18:22:58.111Z,65.85
2023-06-19T18:25:26.013Z,66.20
2023-06-19T18:27:54.245Z,66.28
2023-06-19T18:30:22.916Z,67.22
2023-06-19T18:32:52.621Z,67.88
2023-06-19T18:35:22.143Z,67.72
2023-06-19T18:37:50.402Z,68.02
2023-06-19T18:40:22.608Z,67.94
2023-06-19T18:42:51.518Z,68.06
2023-06-19T18:45:20.000Z,68.39
2023-06-19T18:47:48.420Z,68.75
2023-06-19T18:50:17.545Z,68.95
2023-06-19T18:52:46.152Z,68.81
2023-06-19T18:55:14.445Z,69.01
2023-06-19T18:57:43.013Z,69.23
2023-06-19T19:00:14.267Z,69.74
2023-06-19T19:02:45.323Z,69.99
2023-06-19T19:05:14.349Z,70.65
2023-06-19T19:07:44.413Z,70.07
2023-06-19T19:10:13.652Z,69.98
2023-06-19T19:12:43.421Z,70.06
2023-06-19T19:15:11.899Z,69.98
2023-06-19T19:17:40.406Z,69.94
2023-06-19T19:20:17.499Z,70.11
2023-06-19T19:22:49.577Z,70.25
2023-06-19T19:25:19.645Z,70.37
2023-06-19T19:27:48.125Z,70.46
2023-06-19T19:30:16.381Z,70.78
2023-06-19T19:32:44.480Z,70.70
2023-06-19T19:35:12.741Z,70.68
2023-06-19T19:37:40.842Z,70.74
2023-06-19T19:40:09.675Z,70.91
2023-06-19T19:42:37.694Z,70.85
2023-06-19T19:45:06.854Z,70.90
2023-06-19T19:47:36.171Z,70.83
2023-06-19T19:50:04.959Z,70.88
2023-06-19T19:52:33.052Z,70.78
2023-06-19T19:55:01.112Z,70.66
2023-06-19T19:57:29.649Z,70.57
2023-06-19T19:59:58.056Z,71.59
2023-06-19T20:02:27.174Z,71.86
2023-06-19T20:04:55.193Z,72.21
2023-06-19T20:07:23.119Z,72.42
2023-06-19T20:09:51.121Z,72.20
2023-06-19T20:12:21.860Z,72.75
2023-06-19T20:14:50.374Z,72.46
2023-06-19T20:17:18.446Z,72.39
2023-06-19T20:19:46.589Z,72.30
2023-06-19T20:22:14.788Z,72.56
2023-06-19T20:24:42.796Z,72.59
2023-06-19T20:27:14.709Z,72.62
2023-06-19T20:29:42.994Z,72.61
2023-06-19T20:32:10.982Z,72.80
2023-06-19T20:34:39.238Z,72.68
2023-06-19T20:37:07.460Z,72.96
2023-06-19T20:39:35.388Z,73.05
2023-06-19T20:42:03.715Z,72.95
2023-06-19T20:44:36.168Z,72.95
2023-06-19T20:47:04.772Z,72.93
2023-06-19T20:49:32.709Z,73.08
2023-06-19T20:52:01.067Z,73.29
2023-06-19T20:54:29.032Z,73.49
2023-06-19T20:56:56.971Z,73.38
2023-06-19T20:59:25.178Z,73.24
2023-06-19T21:01:57.529Z,73.12
2023-06-19T21:04:25.605Z,73.16
2023-06-19T21:06:54.646Z,73.10
2023-06-19T21:09:23.596Z,73.12
2023-06-19T21:11:51.737Z,72.99
2023-06-19T21:14:19.788Z,73.18
2023-06-19T21:16:48.383Z,73.16
2023-06-19T21:19:17.229Z,73.31
2023-06-19T21:21:45.996Z,73.17
2023-06-19T21:24:13.967Z,73.19
2023-06-19T21:26:42.071Z,73.33
2023-06-19T21:29:10.057Z,73.17
2023-06-19T21:31:38.148Z,73.17
2023-06-19T21:34:06.500Z,73.55
2023-06-19T21:36:34.730Z,73.38
2023-06-19T21:39:03.948Z,73.45
2023-06-19T21:41:32.178Z,73.65
2023-06-19T21:44:00.501Z,73.48
2023-06-19T21:46:28.503Z,73.25
2023-06-19T21:48:56.752Z,73.24
2023-06-19T21:51:25.124Z,73.21
2023-06-19T21:53:53.273Z,73.64
2023-06-19T21:56:21.252Z,73.96
2023-06-19T21:58:49.159Z,74.21
2023-06-19T22:01:17.132Z,74.38
2023-06-19T22:03:45.349Z,74.48
2023-06-19T22:06:14.030Z,74.69
2023-06-19T22:08:43.331Z,74.86
2023-06-19T22:11:11.816Z,75.01
2023-06-19T22:13:40.573Z,75.16
2023-06-19T22:16:09.217Z,75.05
2023-06-19T22:18:37.501Z,74.90
2023-06-19T22:21:05.545Z,74.87
2023-06-19T22:23:34.018Z,75.09
2023-06-19T22:26:01.988Z,75.03
2023-06-19T22:28:30.157Z,74.65
2023-06-19T22:30:58.634Z,74.69
2023-06-19T22:33:26.908Z,74.68
2023-06-19T22:35:55.068Z,74.90
2023-06-19T22:38:23.582Z,74.94
2023-06-19T22:40:52.032Z,75.13
2023-06-19T22:43:20.216Z,75.22
2023-06-19T22:45:48.390Z,75.17
2023-06-19T22:48:19.666Z,75.16
2023-06-19T22:50:48.324Z,75.06
2023-06-19T22:53:16.445Z,74.87
2023-06-19T22:55:44.372Z,74.66
2023-06-19T22:58:12.365Z,74.42
2023-06-19T23:00:40.304Z,74.30
2023-06-19T23:03:08.533Z,74.49
2023-06-19T23:05:37.165Z,74.74
2023-06-19T23:08:05.458Z,74.77
2023-06-19T23:10:33.371Z,75.02
2023-06-19T23:13:01.329Z,75.06
2023-06-19T23:15:29.430Z,74.97
2023-06-19T23:17:57.483Z,75.39
2023-06-19T23:20:25.569Z,75.78
2023-06-19T23:22:53.469Z,76.39
2023-06-19T23:25:22.387Z,76.92
2023-06-19T23:27:50.430Z,77.22
2023-06-19T23:30:18.879Z,76.92
2023-06-19T23:32:46.910Z,76.88
2023-06-19T23:35:14.940Z,76.90
2023-06-19T23:37:43.203Z,76.83
2023-06-19T23:40:11.662Z,76.93
2023-06-19T23:42:39.727Z,77.06
2023-06-19T23:45:08.458Z,77.03
2023-06-19T23:47:36.615Z,76.92
2023-06-19T23:50:05.431Z,77.21
2023-06-19T23:52:43.046Z,77.21
2023-06-19T23:55:15.867Z,77.24
2023-06-19T23:57:43.864Z,77.42
